sensor_id;sensor_type;location;lat;lon;timestamp;temperature;humidity
32215;DHT22;18708;53.124;23.190;2023-04-03T00:01:59;1.10;1.00
32215;DHT22;18708;53.124;23.190;2023-04-03T00:04:24;1.00;1.00
32215;DHT22;18708;53.124;23.190;2023-04-03T00:06:50;1.00;1.00
32215;DHT22;18708;53.124;23.190;2023-04-03T00:09:17;1.00;1.00
32215;DHT22;18708;53.124;23.190;2023-04-03T00:11:42;1.10;1.00
32215;DHT22;18708;53.124;23.190;2023-04-03T00:14:08;1.00;1.00
32215;DHT22;18708;53.124;23.190;2023-04-03T00:16:33;0.90;1.00
32215;DHT22;18708;53.124;23.190;2023-04-03T00:18:59;0.90;1.00
32215;DHT22;18708;53.124;23.190;2023-04-03T00:21:25;0.90;1.00
32215;DHT22;18708;53.124;23.190;2023-04-03T00:23:51;0.70;1.00
32215;DHT22;18708;53.124;23.190;2023-04-03T00:26:17;0.70;1.00
32215;DHT22;18708;53.124;23.190;2023-04-03T00:28:42;0.60;1.00
32215;DHT22;18708;53.124;23.190;2023-04-03T00:31:08;0.50;1.00
32215;DHT22;18708;53.124;23.190;2023-04-03T00:33:34;0.50;99.90
32215;DHT22;18708;53.124;23.190;2023-04-03T00:36:04;0.50;99.90
32215;DHT22;18708;53.124;23.190;2023-04-03T00:38:31;0.50;99.90
32215;DHT22;18708;53.124;23.190;2023-04-03T00:40:59;0.40;99.90
32215;DHT22;18708;53.124;23.190;2023-04-03T00:43:25;0.40;99.90
32215;DHT22;18708;53.124;23.190;2023-04-03T00:45:53;0.30;99.90
32215;DHT22;18708;53.124;23.190;2023-04-03T00:48:28;0.30;99.90
32215;DHT22;18708;53.124;23.190;2023-04-03T00:50:57;0.20;99.90
32215;DHT22;18708;53.124;23.190;2023-04-03T00:53:40;0.20;99.90
32215;DHT22;18708;53.124;23.190;2023-04-03T00:56:09;0.20;99.90
32215;DHT22;18708;53.124;23.190;2023-04-03T01:01:25;0.10;99.90
32215;DHT22;18708;53.124;23.190;2023-04-03T01:03:51;0.10;99.90
32215;DHT22;18708;53.124;23.190;2023-04-03T01:06:21;0.10;99.90
32215;DHT22;18708;53.124;23.190;2023-04-03T01:08:49;0.10;99.90
32215;DHT22;18708;53.124;23.190;2023-04-03T01:11:16;-0.10;99.90
32215;DHT22;18708;53.124;23.190;2023-04-03T01:13:41;-0.10;99.90
32215;DHT22;18708;53.124;23.190;2023-04-03T01:16:07;-0.10;99.90
32215;DHT22;18708;53.124;23.190;2023-04-03T01:18:35;-0.10;99.90
32215;DHT22;18708;53.124;23.190;2023-04-03T01:21:27;-0.10;99.90
32215;DHT22;18708;53.124;23.190;2023-04-03T01:24:26;-0.20;99.90
32215;DHT22;18708;53.124;23.190;2023-04-03T01:26:48;-0.20;99.90
32215;DHT22;18708;53.124;23.190;2023-04-03T01:29:15;-0.20;99.90
32215;DHT22;18708;53.124;23.190;2023-04-03T01:31:52;-0.20;99.90
32215;DHT22;18708;53.124;23.190;2023-04-03T01:34:19;-0.20;99.90
32215;DHT22;18708;53.124;23.190;2023-04-03T01:36:44;-0.30;99.90
32215;DHT22;18708;53.124;23.190;2023-04-03T01:39:11;-0.40;99.90
32215;DHT22;18708;53.124;23.190;2023-04-03T01:41:37;-0.40;99.90
32215;DHT22;18708;53.124;23.190;2023-04-03T01:44:02;-0.30;99.90
32215;DHT22;18708;53.124;23.190;2023-04-03T01:46:29;-0.30;99.90
32215;DHT22;18708;53.124;23.190;2023-04-03T01:48:55;-0.40;99.90
32215;DHT22;18708;53.124;23.190;2023-04-03T01:51:21;-0.40;99.90
32215;DHT22;18708;53.124;23.190;2023-04-03T01:53:46;-0.40;99.90
32215;DHT22;18708;53.124;23.190;2023-04-03T01:56:12;-0.40;99.90
32215;DHT22;18708;53.124;23.190;2023-04-03T01:58:38;-0.40;99.90
32215;DHT22;18708;53.124;23.190;2023-04-03T02:01:03;-0.60;99.90
32215;DHT22;18708;53.124;23.190;2023-04-03T02:03:29;-0.60;99.90
32215;DHT22;18708;53.124;23.190;2023-04-03T02:05:55;-0.60;99.90
32215;DHT22;18708;53.124;23.190;2023-04-03T02:08:21;-0.60;99.90
32215;DHT22;18708;53.124;23.190;2023-04-03T02:10:48;-0.50;99.90
32215;DHT22;18708;53.124;23.190;2023-04-03T02:13:15;-0.50;99.90
32215;DHT22;18708;53.124;23.190;2023-04-03T02:15:41;-0.60;99.90
32215;DHT22;18708;53.124;23.190;2023-04-03T02:18:07;-0.60;99.90
32215;DHT22;18708;53.124;23.190;2023-04-03T02:20:33;-0.60;99.90
32215;DHT22;18708;53.124;23.190;2023-04-03T02:22:59;-0.70;99.90
32215;DHT22;18708;53.124;23.190;2023-04-03T02:25:24;-0.60;99.90
32215;DHT22;18708;53.124;23.190;2023-04-03T02:27:50;-0.70;99.90
32215;DHT22;18708;53.124;23.190;2023-04-03T02:30:16;-0.70;99.90
32215;DHT22;18708;53.124;23.190;2023-04-03T02:32:42;-0.70;99.90
32215;DHT22;18708;53.124;23.190;2023-04-03T02:35:09;-0.90;99.90
32215;DHT22;18708;53.124;23.190;2023-04-03T02:37:35;-0.80;99.90
32215;DHT22;18708;53.124;23.190;2023-04-03T02:40:01;-0.90;99.90
32215;DHT22;18708;53.124;23.190;2023-04-03T02:42:27;-0.90;99.90
32215;DHT22;18708;53.124;23.190;2023-04-03T02:44:52;-0.80;99.90
32215;DHT22;18708;53.124;23.190;2023-04-03T02:47:18;-0.80;99.90
32215;DHT22;18708;53.124;23.190;2023-04-03T02:49:44;-0.90;99.90
32215;DHT22;18708;53.124;23.190;2023-04-03T02:52:12;-0.90;99.90
32215;DHT22;18708;53.124;23.190;2023-04-03T02:54:39;-0.90;1.00
32215;DHT22;18708;53.124;23.190;2023-04-03T02:57:06;-0.90;1.00
32215;DHT22;18708;53.124;23.190;2023-04-03T02:59:35;-0.80;99.90
32215;DHT22;18708;53.124;23.190;2023-04-03T03:02:00;-1.00;99.90
32215;DHT22;18708;53.124;23.190;2023-04-03T03:04:26;-1.00;1.00
32215;DHT22;18708;53.124;23.190;2023-04-03T03:06:52;-0.90;1.00
32215;DHT22;18708;53.124;23.190;2023-04-03T03:09:18;-1.00;1.00
32215;DHT22;18708;53.124;23.190;2023-04-03T03:11:43;-1.00;1.00
32215;DHT22;18708;53.124;23.190;2023-04-03T03:14:09;-1.10;1.00
32215;DHT22;18708;53.124;23.190;2023-04-03T03:16:35;-1.00;1.00
32215;DHT22;18708;53.124;23.190;2023-04-03T03:19:01;-1.00;1.00
32215;DHT22;18708;53.124;23.190;2023-04-03T03:21:27;-1.10;1.00
32215;DHT22;18708;53.124;23.190;2023-04-03T03:23:52;-1.10;1.00
32215;DHT22;18708;53.124;23.190;2023-04-03T03:26:18;-1.10;1.00
32215;DHT22;18708;53.124;23.190;2023-04-03T03:28:44;-1.20;1.00
32215;DHT22;18708;53.124;23.190;2023-04-03T03:31:10;-1.10;1.00
32215;DHT22;18708;53.124;23.190;2023-04-03T03:33:36;-1.20;1.00
32215;DHT22;18708;53.124;23.190;2023-04-03T03:36:01;-1.20;1.00
32215;DHT22;18708;53.124;23.190;2023-04-03T03:38:27;-1.30;1.00
32215;DHT22;18708;53.124;23.190;2023-04-03T03:40:53;-1.30;1.00
32215;DHT22;18708;53.124;23.190;2023-04-03T03:43:19;-1.30;1.00
32215;DHT22;18708;53.124;23.190;2023-04-03T03:45:49;-1.30;1.00
32215;DHT22;18708;53.124;23.190;2023-04-03T03:48:16;-1.40;1.00
32215;DHT22;18708;53.124;23.190;2023-04-03T03:50:42;-1.40;1.00
32215;DHT22;18708;53.124;23.190;2023-04-03T03:53:07;-1.40;1.00
32215;DHT22;18708;53.124;23.190;2023-04-03T03:55:33;-1.30;1.00
32215;DHT22;18708;53.124;23.190;2023-04-03T03:57:59;-1.40;1.00
32215;DHT22;18708;53.124;23.190;2023-04-03T04:00:27;-1.40;1.00
32215;DHT22;18708;53.124;23.190;2023-04-03T04:02:52;-1.50;1.00
32215;DHT22;18708;53.124;23.190;2023-04-03T04:05:18;-1.40;1.00
32215;DHT22;18708;53.124;23.190;2023-04-03T04:07:45;-1.40;1.00
32215;DHT22;18708;53.124;23.190;2023-04-03T04:10:10;-1.50;1.00
32215;DHT22;18708;53.124;23.190;2023-04-03T04:12:36;-1.50;1.00
32215;DHT22;18708;53.124;23.190;2023-04-03T04:15:03;-1.50;1.00
32215;DHT22;18708;53.124;23.190;2023-04-03T04:17:28;-1.50;1.00
32215;DHT22;18708;53.124;23.190;2023-04-03T04:19:54;-1.40;1.00
32215;DHT22;18708;53.124;23.190;2023-04-03T04:22:20;-1.40;1.00
32215;DHT22;18708;53.124;23.190;2023-04-03T04:24:45;-1.40;1.00
32215;DHT22;18708;53.124;23.190;2023-04-03T04:27:11;-1.40;1.00
32215;DHT22;18708;53.124;23.190;2023-04-03T04:29:37;-1.40;1.00
32215;DHT22;18708;53.124;23.190;2023-04-03T04:32:03;-1.40;1.00
32215;DHT22;18708;53.124;23.190;2023-04-03T04:34:29;-1.40;1.00
32215;DHT22;18708;53.124;23.190;2023-04-03T04:36:55;-1.40;1.00
32215;DHT22;18708;53.124;23.190;2023-04-03T04:39:21;-1.30;1.00
32215;DHT22;18708;53.124;23.190;2023-04-03T04:41:47;-1.30;1.00
32215;DHT22;18708;53.124;23.190;2023-04-03T04:44:12;-1.40;1.00
32215;DHT22;18708;53.124;23.190;2023-04-03T04:46:38;-1.40;1.00
32215;DHT22;18708;53.124;23.190;2023-04-03T04:49:04;-1.40;1.00
32215;DHT22;18708;53.124;23.190;2023-04-03T04:51:29;-1.30;1.00
32215;DHT22;18708;53.124;23.190;2023-04-03T04:53:55;-1.20;1.00
32215;DHT22;18708;53.124;23.190;2023-04-03T04:56:21;-1.20;1.00
32215;DHT22;18708;53.124;23.190;2023-04-03T04:58:47;-1.20;1.00
32215;DHT22;18708;53.124;23.190;2023-04-03T05:01:13;-1.20;1.00
32215;DHT22;18708;53.124;23.190;2023-04-03T05:03:38;-1.10;1.00
32215;DHT22;18708;53.124;23.190;2023-04-03T05:06:05;-1.20;1.00
32215;DHT22;18708;53.124;23.190;2023-04-03T05:08:30;-1.10;1.00
32215;DHT22;18708;53.124;23.190;2023-04-03T05:10:56;-1.10;1.00
32215;DHT22;18708;53.124;23.190;2023-04-03T05:13:22;-1.00;1.00
32215;DHT22;18708;53.124;23.190;2023-04-03T05:15:47;-0.90;1.00
32215;DHT22;18708;53.124;23.190;2023-04-03T05:18:13;-0.90;1.00
32215;DHT22;18708;53.124;23.190;2023-04-03T05:20:41;-0.90;1.00
32215;DHT22;18708;53.124;23.190;2023-04-03T05:23:09;-0.80;1.00
32215;DHT22;18708;53.124;23.190;2023-04-03T05:25:37;-0.80;1.00
32215;DHT22;18708;53.124;23.190;2023-04-03T05:28:05;-0.80;1.00
32215;DHT22;18708;53.124;23.190;2023-04-03T05:30:31;-0.60;1.00
32215;DHT22;18708;53.124;23.190;2023-04-03T05:32:58;-0.60;1.00
32215;DHT22;18708;53.124;23.190;2023-04-03T05:35:24;-0.50;1.00
32215;DHT22;18708;53.124;23.190;2023-04-03T05:37:49;-0.50;1.00
32215;DHT22;18708;53.124;23.190;2023-04-03T05:40:15;-0.40;1.00
32215;DHT22;18708;53.124;23.190;2023-04-03T05:42:41;-0.20;1.00
32215;DHT22;18708;53.124;23.190;2023-04-03T05:45:07;0.00;1.00
32215;DHT22;18708;53.124;23.190;2023-04-03T05:47:32;0.20;1.00
32215;DHT22;18708;53.124;23.190;2023-04-03T05:49:58;0.30;1.00
32215;DHT22;18708;53.124;23.190;2023-04-03T05:52:30;0.50;1.00
32215;DHT22;18708;53.124;23.190;2023-04-03T05:54:56;0.70;1.00
32215;DHT22;18708;53.124;23.190;2023-04-03T05:57:22;0.70;1.00
32215;DHT22;18708;53.124;23.190;2023-04-03T05:59:48;0.80;1.00
32215;DHT22;18708;53.124;23.190;2023-04-03T06:02:17;0.90;1.00
32215;DHT22;18708;53.124;23.190;2023-04-03T06:04:43;1.00;1.00
32215;DHT22;18708;53.124;23.190;2023-04-03T06:07:14;1.00;1.00
32215;DHT22;18708;53.124;23.190;2023-04-03T06:09:41;1.30;1.00
32215;DHT22;18708;53.124;23.190;2023-04-03T06:12:07;1.50;1.00
32215;DHT22;18708;53.124;23.190;2023-04-03T06:14:33;1.60;99.90
32215;DHT22;18708;53.124;23.190;2023-04-03T06:16:59;1.70;99.90
32215;DHT22;18708;53.124;23.190;2023-04-03T06:19:25;1.80;99.90
32215;DHT22;18708;53.124;23.190;2023-04-03T06:21:51;1.90;99.90
32215;DHT22;18708;53.124;23.190;2023-04-03T06:24:18;2.10;99.90
32215;DHT22;18708;53.124;23.190;2023-04-03T06:26:45;2.10;99.90
32215;DHT22;18708;53.124;23.190;2023-04-03T06:29:11;2.10;99.90
32215;DHT22;18708;53.124;23.190;2023-04-03T06:31:36;2.30;99.90
32215;DHT22;18708;53.124;23.190;2023-04-03T06:34:03;2.30;99.90
32215;DHT22;18708;53.124;23.190;2023-04-03T06:36:28;2.40;99.90
32215;DHT22;18708;53.124;23.190;2023-04-03T06:38:55;2.50;99.90
32215;DHT22;18708;53.124;23.190;2023-04-03T06:41:23;2.60;99.90
32215;DHT22;18708;53.124;23.190;2023-04-03T06:43:49;2.80;99.90
32215;DHT22;18708;53.124;23.190;2023-04-03T06:46:20;3.10;99.90
32215;DHT22;18708;53.124;23.190;2023-04-03T06:48:46;3.00;99.90
32215;DHT22;18708;53.124;23.190;2023-04-03T06:51:23;3.30;99.90
32215;DHT22;18708;53.124;23.190;2023-04-03T06:53:51;3.30;80.90
32215;DHT22;18708;53.124;23.190;2023-04-03T06:56:17;3.30;28.20
32215;DHT22;18708;53.124;23.190;2023-04-03T06:58:43;3.30;85.30
32215;DHT22;18708;53.124;23.190;2023-04-03T07:01:10;3.50;74.70
32215;DHT22;18708;53.124;23.190;2023-04-03T07:03:38;3.80;97.30
32215;DHT22;18708;53.124;23.190;2023-04-03T07:06:05;3.90;42.40
32215;DHT22;18708;53.124;23.190;2023-04-03T07:08:31;3.90;39.50
32215;DHT22;18708;53.124;23.190;2023-04-03T07:10:57;4.30;33.00
32215;DHT22;18708;53.124;23.190;2023-04-03T07:13:23;4.60;54.30
32215;DHT22;18708;53.124;23.190;2023-04-03T07:15:48;4.90;83.10
32215;DHT22;18708;53.124;23.190;2023-04-03T07:18:14;5.20;95.90
32215;DHT22;18708;53.124;23.190;2023-04-03T07:20:40;4.80;1.00
32215;DHT22;18708;53.124;23.190;2023-04-03T07:23:06;4.90;1.00
32215;DHT22;18708;53.124;23.190;2023-04-03T07:25:31;5.00;1.00
32215;DHT22;18708;53.124;23.190;2023-04-03T07:27:57;5.20;1.00
32215;DHT22;18708;53.124;23.190;2023-04-03T07:30:23;5.10;1.00
32215;DHT22;18708;53.124;23.190;2023-04-03T07:32:49;5.10;1.00
32215;DHT22;18708;53.124;23.190;2023-04-03T07:35:15;5.10;1.00
32215;DHT22;18708;53.124;23.190;2023-04-03T07:37:42;5.40;1.00
32215;DHT22;18708;53.124;23.190;2023-04-03T07:40:08;5.40;1.00
32215;DHT22;18708;53.124;23.190;2023-04-03T07:42:34;5.30;1.00
32215;DHT22;18708;53.124;23.190;2023-04-03T07:45:02;5.00;1.00
32215;DHT22;18708;53.124;23.190;2023-04-03T07:47:28;5.40;1.00
32215;DHT22;18708;53.124;23.190;2023-04-03T07:49:54;5.40;1.00
32215;DHT22;18708;53.124;23.190;2023-04-03T07:52:20;5.40;1.00
32215;DHT22;18708;53.124;23.190;2023-04-03T07:54:45;5.40;1.00
32215;DHT22;18708;53.124;23.190;2023-04-03T07:57:11;5.10;1.00
32215;DHT22;18708;53.124;23.190;2023-04-03T07:59:37;5.20;1.00
32215;DHT22;18708;53.124;23.190;2023-04-03T08:02:02;5.10;1.00
32215;DHT22;18708;53.124;23.190;2023-04-03T08:04:30;5.30;1.00
32215;DHT22;18708;53.124;23.190;2023-04-03T08:06:56;5.60;1.00
32215;DHT22;18708;53.124;23.190;2023-04-03T08:09:21;5.70;1.00
32215;DHT22;18708;53.124;23.190;2023-04-03T08:11:47;6.20;1.00
32215;DHT22;18708;53.124;23.190;2023-04-03T08:14:13;6.20;1.00
32215;DHT22;18708;53.124;23.190;2023-04-03T08:16:45;6.10;1.00
32215;DHT22;18708;53.124;23.190;2023-04-03T08:19:11;6.30;1.00
32215;DHT22;18708;53.124;23.190;2023-04-03T08:21:40;5.80;1.00
32215;DHT22;18708;53.124;23.190;2023-04-03T08:24:07;6.30;1.00
32215;DHT22;18708;53.124;23.190;2023-04-03T08:26:33;7.00;1.00
32215;DHT22;18708;53.124;23.190;2023-04-03T08:28:58;7.10;1.00
32215;DHT22;18708;53.124;23.190;2023-04-03T08:31:24;7.00;1.00
32215;DHT22;18708;53.124;23.190;2023-04-03T08:33:50;6.50;1.00
32215;DHT22;18708;53.124;23.190;2023-04-03T08:36:22;6.40;1.00
32215;DHT22;18708;53.124;23.190;2023-04-03T08:38:48;7.10;1.00
32215;DHT22;18708;53.124;23.190;2023-04-03T08:46:14;7.00;19.50
32215;DHT22;18708;53.124;23.190;2023-04-03T08:48:42;7.70;45.00
32215;DHT22;18708;53.124;23.190;2023-04-03T08:51:15;7.50;1.00
32215;DHT22;18708;53.124;23.190;2023-04-03T08:54:00;7.30;1.00
32215;DHT22;18708;53.124;23.190;2023-04-03T08:56:30;6.90;1.00
32215;DHT22;18708;53.124;23.190;2023-04-03T08:58:58;7.10;1.00
32215;DHT22;18708;53.124;23.190;2023-04-03T09:01:35;7.70;1.00
32215;DHT22;18708;53.124;23.190;2023-04-03T09:04:02;7.70;1.00
32215;DHT22;18708;53.124;23.190;2023-04-03T09:06:32;7.70;1.00
32215;DHT22;18708;53.124;23.190;2023-04-03T09:11:27;6.60;1.00
32215;DHT22;18708;53.124;23.190;2023-04-03T09:16:56;7.20;1.00
32215;DHT22;18708;53.124;23.190;2023-04-03T09:22:20;6.70;1.00
32215;DHT22;18708;53.124;23.190;2023-04-03T09:24:52;6.50;1.00
32215;DHT22;18708;53.124;23.190;2023-04-03T09:27:21;6.50;1.00
32215;DHT22;18708;53.124;23.190;2023-04-03T09:29:47;6.80;1.00
32215;DHT22;18708;53.124;23.190;2023-04-03T09:32:27;7.00;1.00
32215;DHT22;18708;53.124;23.190;2023-04-03T09:34:56;7.40;1.00
32215;DHT22;18708;53.124;23.190;2023-04-03T09:37:41;7.50;1.00
32215;DHT22;18708;53.124;23.190;2023-04-03T09:40:30;7.40;1.00
32215;DHT22;18708;53.124;23.190;2023-04-03T09:42:59;7.50;99.90
32215;DHT22;18708;53.124;23.190;2023-04-03T09:45:33;7.10;99.90
32215;DHT22;18708;53.124;23.190;2023-04-03T09:51:02;7.60;99.90
32215;DHT22;18708;53.124;23.190;2023-04-03T09:53:39;8.10;56.50
32215;DHT22;18708;53.124;23.190;2023-04-03T09:59:12;8.60;1.00
32215;DHT22;18708;53.124;23.190;2023-04-03T10:01:57;8.30;1.00
32215;DHT22;18708;53.124;23.190;2023-04-03T10:04:23;8.00;1.00
32215;DHT22;18708;53.124;23.190;2023-04-03T10:06:52;8.70;1.00
32215;DHT22;18708;53.124;23.190;2023-04-03T10:09:25;8.90;20.60
32215;DHT22;18708;53.124;23.190;2023-04-03T10:12:08;9.20;98.80
32215;DHT22;18708;53.124;23.190;2023-04-03T10:14:55;8.60;12.60
32215;DHT22;18708;53.124;23.190;2023-04-03T10:20:28;8.60;6.20
32215;DHT22;18708;53.124;23.190;2023-04-03T10:31:08;8.70;1.00
32215;DHT22;18708;53.124;23.190;2023-04-03T10:42:18;9.70;1.00
32215;DHT22;18708;53.124;23.190;2023-04-03T10:55:36;9.50;1.00
32215;DHT22;18708;53.124;23.190;2023-04-03T10:58:05;9.90;23.80
32215;DHT22;18708;53.124;23.190;2023-04-03T11:00:42;9.80;1.00
32215;DHT22;18708;53.124;23.190;2023-04-03T11:03:33;9.30;1.00
32215;DHT22;18708;53.124;23.190;2023-04-03T11:06:02;9.50;1.00
32215;DHT22;18708;53.124;23.190;2023-04-03T11:11:39;9.40;1.00
32215;DHT22;18708;53.124;23.190;2023-04-03T11:20:14;9.40;1.00
32215;DHT22;18708;53.124;23.190;2023-04-03T11:22:47;9.10;1.00
32215;DHT22;18708;53.124;23.190;2023-04-03T11:25:25;8.00;1.00
32215;DHT22;18708;53.124;23.190;2023-04-03T11:27:55;7.40;1.00
32215;DHT22;18708;53.124;23.190;2023-04-03T11:30:46;8.10;1.00
32215;DHT22;18708;53.124;23.190;2023-04-03T11:38:59;9.50;1.00
32215;DHT22;18708;53.124;23.190;2023-04-03T11:41:29;8.50;1.00
32215;DHT22;18708;53.124;23.190;2023-04-03T11:44:02;8.10;1.00
32215;DHT22;18708;53.124;23.190;2023-04-03T11:46:51;7.80;1.00
32215;DHT22;18708;53.124;23.190;2023-04-03T12:05:57;7.50;1.00
32215;DHT22;18708;53.124;23.190;2023-04-03T12:11:22;8.40;1.00
32215;DHT22;18708;53.124;23.190;2023-04-03T12:16:28;8.50;1.00
32215;DHT22;18708;53.124;23.190;2023-04-03T12:24:52;8.10;1.00
32215;DHT22;18708;53.124;23.190;2023-04-03T12:27:33;7.80;1.00
32215;DHT22;18708;53.124;23.190;2023-04-03T12:30:21;7.80;1.00
32215;DHT22;18708;53.124;23.190;2023-04-03T12:35:37;8.10;1.00
32215;DHT22;18708;53.124;23.190;2023-04-03T12:44:01;8.60;1.00
32215;DHT22;18708;53.124;23.190;2023-04-03T12:46:44;8.00;1.00
32215;DHT22;18708;53.124;23.190;2023-04-03T12:51:46;7.90;1.00
32215;DHT22;18708;53.124;23.190;2023-04-03T12:56:47;8.40;1.00
32215;DHT22;18708;53.124;23.190;2023-04-03T12:59:21;8.90;99.90
32215;DHT22;18708;53.124;23.190;2023-04-03T13:02:01;8.70;1.00
32215;DHT22;18708;53.124;23.190;2023-04-03T13:04:28;7.90;1.00
32215;DHT22;18708;53.124;23.190;2023-04-03T13:06:54;7.40;1.00
32215;DHT22;18708;53.124;23.190;2023-04-03T13:09:27;7.30;1.00
32215;DHT22;18708;53.124;23.190;2023-04-03T13:11:59;7.20;1.00
32215;DHT22;18708;53.124;23.190;2023-04-03T13:14:27;7.00;1.00
32215;DHT22;18708;53.124;23.190;2023-04-03T13:19:23;7.20;1.00
32215;DHT22;18708;53.124;23.190;2023-04-03T13:21:49;7.20;1.00
32215;DHT22;18708;53.124;23.190;2023-04-03T13:24:19;7.10;1.00
32215;DHT22;18708;53.124;23.190;2023-04-03T13:26:45;7.00;1.00
32215;DHT22;18708;53.124;23.190;2023-04-03T13:29:33;7.00;1.00
32215;DHT22;18708;53.124;23.190;2023-04-03T13:32:00;7.50;1.00
32215;DHT22;18708;53.124;23.190;2023-04-03T13:34:40;7.50;1.00
32215;DHT22;18708;53.124;23.190;2023-04-03T13:37:07;7.40;1.00
32215;DHT22;18708;53.124;23.190;2023-04-03T13:39:39;7.10;1.00
32215;DHT22;18708;53.124;23.190;2023-04-03T13:42:25;6.70;1.00
32215;DHT22;18708;53.124;23.190;2023-04-03T13:47:41;6.60;1.00
32215;DHT22;18708;53.124;23.190;2023-04-03T13:50:22;6.60;1.00
32215;DHT22;18708;53.124;23.190;2023-04-03T13:53:33;6.30;1.00
32215;DHT22;18708;53.124;23.190;2023-04-03T13:55:55;6.20;1.00
32215;DHT22;18708;53.124;23.190;2023-04-03T13:58:25;6.00;1.00
32215;DHT22;18708;53.124;23.190;2023-04-03T14:00:53;6.10;1.00
32215;DHT22;18708;53.124;23.190;2023-04-03T14:03:38;6.40;1.00
32215;DHT22;18708;53.124;23.190;2023-04-03T14:06:06;6.50;1.00
32215;DHT22;18708;53.124;23.190;2023-04-03T14:08:33;6.50;1.00
32215;DHT22;18708;53.124;23.190;2023-04-03T14:10:59;6.30;39.10
32215;DHT22;18708;53.124;23.190;2023-04-03T14:13:25;6.10;2.40
32215;DHT22;18708;53.124;23.190;2023-04-03T14:15:51;6.00;99.90
32215;DHT22;18708;53.124;23.190;2023-04-03T14:18:19;5.80;1.00
32215;DHT22;18708;53.124;23.190;2023-04-03T14:20:46;5.80;1.00
32215;DHT22;18708;53.124;23.190;2023-04-03T14:23:13;5.80;24.30
32215;DHT22;18708;53.124;23.190;2023-04-03T14:25:39;5.80;1.00
32215;DHT22;18708;53.124;23.190;2023-04-03T14:28:22;5.70;1.00
32215;DHT22;18708;53.124;23.190;2023-04-03T14:30:49;5.70;1.00
32215;DHT22;18708;53.124;23.190;2023-04-03T14:33:19;5.70;1.00
32215;DHT22;18708;53.124;23.190;2023-04-03T14:35:46;5.80;1.00
32215;DHT22;18708;53.124;23.190;2023-04-03T14:38:27;5.80;1.00
32215;DHT22;18708;53.124;23.190;2023-04-03T14:40:53;5.80;1.00
32215;DHT22;18708;53.124;23.190;2023-04-03T14:43:20;5.70;1.00
32215;DHT22;18708;53.124;23.190;2023-04-03T14:45:49;5.70;1.00
32215;DHT22;18708;53.124;23.190;2023-04-03T14:48:19;5.60;1.00
32215;DHT22;18708;53.124;23.190;2023-04-03T14:50:47;5.60;1.00
32215;DHT22;18708;53.124;23.190;2023-04-03T14:53:14;5.60;1.00
32215;DHT22;18708;53.124;23.190;2023-04-03T14:55:42;5.60;1.00
32215;DHT22;18708;53.124;23.190;2023-04-03T14:58:16;5.50;1.00
32215;DHT22;18708;53.124;23.190;2023-04-03T15:00:42;5.50;1.00
32215;DHT22;18708;53.124;23.190;2023-04-03T15:03:21;5.40;1.00
32215;DHT22;18708;53.124;23.190;2023-04-03T15:05:48;5.30;1.00
32215;DHT22;18708;53.124;23.190;2023-04-03T15:08:25;5.20;1.00
32215;DHT22;18708;53.124;23.190;2023-04-03T15:10:52;5.20;1.00
32215;DHT22;18708;53.124;23.190;2023-04-03T15:13:18;5.20;1.00
32215;DHT22;18708;53.124;23.190;2023-04-03T15:15:45;5.20;1.00
32215;DHT22;18708;53.124;23.190;2023-04-03T15:18:18;5.30;1.00
32215;DHT22;18708;53.124;23.190;2023-04-03T15:20:44;5.30;1.00
32215;DHT22;18708;53.124;23.190;2023-04-03T15:23:15;5.30;1.00
32215;DHT22;18708;53.124;23.190;2023-04-03T15:25:43;5.10;1.00
32215;DHT22;18708;53.124;23.190;2023-04-03T15:28:19;5.10;1.00
32215;DHT22;18708;53.124;23.190;2023-04-03T15:30:47;5.10;1.00
32215;DHT22;18708;53.124;23.190;2023-04-03T15:33:13;5.10;1.00
32215;DHT22;18708;53.124;23.190;2023-04-03T15:35:41;5.00;1.00
32215;DHT22;18708;53.124;23.190;2023-04-03T15:38:06;4.90;1.00
32215;DHT22;18708;53.124;23.190;2023-04-03T15:40:32;4.80;1.00
32215;DHT22;18708;53.124;23.190;2023-04-03T15:42:58;4.80;1.00
32215;DHT22;18708;53.124;23.190;2023-04-03T15:45:23;4.80;1.00
32215;DHT22;18708;53.124;23.190;2023-04-03T15:47:49;4.70;1.00
32215;DHT22;18708;53.124;23.190;2023-04-03T15:50:16;4.50;1.00
32215;DHT22;18708;53.124;23.190;2023-04-03T15:52:42;4.60;1.00
32215;DHT22;18708;53.124;23.190;2023-04-03T15:55:08;4.60;1.00
32215;DHT22;18708;53.124;23.190;2023-04-03T15:57:34;4.60;1.00
32215;DHT22;18708;53.124;23.190;2023-04-03T16:00:00;4.50;1.00
32215;DHT22;18708;53.124;23.190;2023-04-03T16:02:25;4.50;1.00
32215;DHT22;18708;53.124;23.190;2023-04-03T16:04:54;4.50;1.00
32215;DHT22;18708;53.124;23.190;2023-04-03T16:07:20;4.40;1.00
32215;DHT22;18708;53.124;23.190;2023-04-03T16:09:46;4.40;1.00
32215;DHT22;18708;53.124;23.190;2023-04-03T16:12:11;4.50;1.00
32215;DHT22;18708;53.124;23.190;2023-04-03T16:14:37;4.40;1.00
32215;DHT22;18708;53.124;23.190;2023-04-03T16:17:03;4.40;1.00
32215;DHT22;18708;53.124;23.190;2023-04-03T16:19:29;4.40;1.00
32215;DHT22;18708;53.124;23.190;2023-04-03T16:21:55;4.50;1.00
32215;DHT22;18708;53.124;23.190;2023-04-03T16:24:21;4.40;1.00
32215;DHT22;18708;53.124;23.190;2023-04-03T16:26:47;4.40;1.00
32215;DHT22;18708;53.124;23.190;2023-04-03T16:29:13;4.40;1.00
32215;DHT22;18708;53.124;23.190;2023-04-03T16:31:38;4.40;1.00
32215;DHT22;18708;53.124;23.190;2023-04-03T16:34:04;4.30;1.00
32215;DHT22;18708;53.124;23.190;2023-04-03T16:36:30;4.20;1.00
32215;DHT22;18708;53.124;23.190;2023-04-03T16:38:56;4.30;1.00
32215;DHT22;18708;53.124;23.190;2023-04-03T16:41:21;4.20;1.00
32215;DHT22;18708;53.124;23.190;2023-04-03T16:43:47;4.30;1.00
32215;DHT22;18708;53.124;23.190;2023-04-03T16:46:13;4.30;1.00
32215;DHT22;18708;53.124;23.190;2023-04-03T16:48:39;4.20;1.00
32215;DHT22;18708;53.124;23.190;2023-04-03T16:51:04;4.10;1.00
32215;DHT22;18708;53.124;23.190;2023-04-03T16:53:30;4.00;1.00
32215;DHT22;18708;53.124;23.190;2023-04-03T16:55:57;4.00;1.00
32215;DHT22;18708;53.124;23.190;2023-04-03T16:58:23;4.00;1.00
32215;DHT22;18708;53.124;23.190;2023-04-03T17:00:50;4.00;1.00
32215;DHT22;18708;53.124;23.190;2023-04-03T17:03:15;3.90;1.00
32215;DHT22;18708;53.124;23.190;2023-04-03T17:05:41;4.00;1.00
32215;DHT22;18708;53.124;23.190;2023-04-03T17:08:08;3.90;1.00
32215;DHT22;18708;53.124;23.190;2023-04-03T17:10:34;3.90;1.00
32215;DHT22;18708;53.124;23.190;2023-04-03T17:13:00;3.80;1.00
32215;DHT22;18708;53.124;23.190;2023-04-03T17:15:26;3.80;1.00
32215;DHT22;18708;53.124;23.190;2023-04-03T17:17:52;3.70;1.00
32215;DHT22;18708;53.124;23.190;2023-04-03T17:20:18;3.70;1.00
32215;DHT22;18708;53.124;23.190;2023-04-03T17:22:45;3.70;1.00
32215;DHT22;18708;53.124;23.190;2023-04-03T17:25:11;3.70;1.00
32215;DHT22;18708;53.124;23.190;2023-04-03T17:27:37;3.70;1.00
32215;DHT22;18708;53.124;23.190;2023-04-03T17:30:04;3.70;1.00
32215;DHT22;18708;53.124;23.190;2023-04-03T17:32:29;3.70;1.00
32215;DHT22;18708;53.124;23.190;2023-04-03T17:34:55;3.70;1.00
32215;DHT22;18708;53.124;23.190;2023-04-03T17:37:21;3.60;1.00
32215;DHT22;18708;53.124;23.190;2023-04-03T17:39:47;3.50;1.00